Time;durP1;ratioP1;P1;durP2;ratioP2;P2;SDS_P1;SDS_P2;PMS_P1;PMS_P2;Temp;Humidity;BMP_temperature;BMP_pressure;BME280_temperature;BME280_humidity;BME280_pressure;Samples;Min_cycle;Max_cycle;Signal;HPM_P1;HPM_P2
2022/05/31 00:00:24;;;;;;;4.43;4.22;;;;;;;9.63;88.96;100935.78;6084702;23;20124;-68
2022/05/31 00:02:52;;;;;;;4.43;4.22;;;;;;;9.62;88.92;100954.19;6041921;23;20027;-68
2022/05/31 00:05:19;;;;;;;4.03;3.85;;;;;;;9.41;89.25;100907.06;6087344;23;20029;-69
2022/05/31 00:07:45;;;;;;;4.40;4.20;;;;;;;9.45;88.37;100898.16;6048447;23;20032;-70
2022/05/31 00:10:14;;;;;;;4.43;4.22;;;;;;;9.72;87.49;100930.16;6081974;23;20284;-68
2022/05/31 00:12:41;;;;;;;4.40;4.20;;;;;;;9.48;86.86;100874.47;6026024;23;20078;-69
2022/05/31 00:15:10;;;;;;;5.32;5.13;;;;;;;9.82;85.04;100920.06;6053795;23;20029;-68
2022/05/31 00:17:37;;;;;;;4.18;3.97;;;;;;;9.76;84.50;100904.63;6083076;23;20009;-68
2022/05/31 00:20:05;;;;;;;5.82;5.57;;;;;;;9.86;84.63;100916.44;6088978;23;20082;-68
2022/05/31 00:22:34;;;;;;;4.40;4.20;;;;;;;9.62;83.82;100878.19;6047811;23;20020;-68
2022/05/31 00:25:01;;;;;;;5.65;5.43;;;;;;;9.72;82.93;100896.09;6084128;23;20269;-68
2022/05/31 00:27:28;;;;;;;4.10;3.90;;;;;;;9.54;82.56;100887.28;6049719;23;20101;-68
2022/05/31 00:29:55;;;;;;;5.78;5.53;;;;;;;9.68;83.29;100918.09;6042686;23;20022;-68
2022/05/31 00:32:30;;;;;;;4.65;4.45;;;;;;;9.44;83.64;100883.38;6046172;23;20022;-68
2022/05/31 00:35:02;;;;;;;5.57;5.38;;;;;;;9.63;84.53;100913.97;6072271;23;20029;-69
2022/05/31 00:37:29;;;;;;;4.38;4.18;;;;;;;9.70;84.62;100916.25;6052174;23;20066;-68
2022/05/31 00:39:55;;;;;;;4.15;3.95;;;;;;;9.66;84.11;100909.47;6077621;23;20053;-68
2022/05/31 00:42:22;;;;;;;4.50;4.30;;;;;;;9.72;84.77;100918.78;6052799;23;20439;-68
2022/05/31 00:44:49;;;;;;;4.40;4.20;;;;;;;9.44;84.69;100865.03;6076763;23;20018;-68
2022/05/31 00:47:33;;;;;;;4.50;4.30;;;;;;;9.62;84.67;100894.75;6078572;23;20032;-68
2022/05/31 00:50:07;;;;;;;6.05;5.75;;;;;;;9.82;84.24;100921.84;6050207;23;20509;-68
2022/05/31 00:52:37;;;;;;;4.20;4.00;;;;;;;9.51;83.94;100884.78;6075724;23;20097;-69
2022/05/31 00:55:12;;;;;;;5.35;5.15;;;;;;;9.80;83.26;100916.69;6038721;23;20033;-68
2022/05/31 00:57:53;;;;;;;4.65;4.35;;;;;;;9.72;83.68;100918.78;6056562;23;20013;-68
2022/05/31 01:00:22;;;;;;;4.28;4.07;;;;;;;9.70;83.95;100912.78;6031593;23;20061;-69
2022/05/31 01:02:49;;;;;;;4.47;4.28;;;;;;;9.49;84.49;100886.63;6045476;23;20011;-68
2022/05/31 01:05:18;;;;;;;4.43;4.22;;;;;;;9.57;84.50;100915.94;6049909;23;20054;-69
2022/05/31 01:07:46;;;;;;;4.18;3.97;;;;;;;9.55;85.05;100917.78;6063497;23;20022;-69
2022/05/31 01:10:14;;;;;;;4.13;3.92;;;;;;;9.52;85.53;100911.81;6050919;23;21320;-69
2022/05/31 01:12:43;;;;;;;5.07;4.60;;;;;;;9.50;85.42;100908.41;6085899;23;20399;-69
2022/05/31 01:15:15;;;;;;;4.30;4.10;;;;;;;9.49;85.35;100907.56;6048608;23;20468;-69
2022/05/31 01:17:42;;;;;;;4.32;4.13;;;;;;;9.48;85.26;100908.50;6085451;23;20029;-69
2022/05/31 01:20:11;;;;;;;4.40;4.20;;;;;;;9.49;85.22;100901.50;6074276;23;20024;-69
2022/05/31 01:22:39;;;;;;;4.40;4.20;;;;;;;8.41;85.07;100716.84;6048364;23;20235;-68
2022/05/31 01:25:21;;;;;;;5.47;5.28;;;;;;;9.55;84.61;100902.06;6084367;23;20090;-69
2022/05/31 01:28:10;;;;;;;4.35;4.15;;;;;;;9.43;84.28;100879.03;6043760;23;20105;-68
2022/05/31 01:30:55;;;;;;;4.00;3.83;;;;;;;9.27;84.44;100844.81;6066112;23;20098;-68
2022/05/31 01:33:29;;;;;;;4.78;4.53;;;;;;;9.58;83.42;100894.09;6047921;23;20019;-68
2022/05/31 01:36:01;;;;;;;5.03;4.82;;;;;;;9.56;83.05;100893.31;6071780;23;20121;-70
2022/05/31 01:38:35;;;;;;;4.20;4.00;;;;;;;9.47;83.42;100877.13;6051469;23;20010;-69
2022/05/31 01:41:16;;;;;;;5.18;4.97;;;;;;;9.57;82.88;100887.13;6053140;23;20305;-69
2022/05/31 01:43:45;;;;;;;4.10;3.90;;;;;;;9.49;82.23;100870.06;6047124;23;20083;-68
2022/05/31 01:46:16;;;;;;;4.32;4.13;;;;;;;9.61;82.32;100900.09;6072674;23;20033;-69
2022/05/31 01:48:43;;;;;;;4.25;4.05;;;;;;;9.57;81.51;100888.91;6055952;23;20358;-69
2022/05/31 01:51:12;;;;;;;3.80;3.70;;;;;;;9.33;80.99;100834.06;6054059;23;20064;-69
2022/05/31 01:53:39;;;;;;;4.47;4.28;;;;;;;8.35;80.71;100665.66;6075133;23;20095;-69
2022/05/31 01:56:08;;;;;;;5.40;5.20;;;;;;;9.67;79.50;100884.09;6050311;23;20366;-69
2022/05/31 01:58:38;;;;;;;4.10;3.90;;;;;;;9.71;80.06;100877.78;6023291;23;20139;-69
2022/05/31 02:01:06;;;;;;;5.57;5.38;;;;;;;9.42;79.03;100830.19;6030400;23;20369;-69
2022/05/31 02:03:33;;;;;;;4.30;4.10;;;;;;;9.69;78.62;100870.00;6050141;23;20037;-69
2022/05/31 02:06:00;;;;;;;5.97;5.68;;;;;;;9.75;79.69;100879.34;6052801;23;20079;-70
2022/05/31 02:08:31;;;;;;;4.15;3.95;;;;;;;9.65;79.03;100871.06;6056708;23;20089;-69
2022/05/31 02:10:57;;;;;;;5.85;5.60;;;;;;;9.71;79.25;100869.94;6054867;23;20032;-69
2022/05/31 02:13:27;;;;;;;4.25;4.05;;;;;;;9.75;79.79;100876.72;6055590;23;20187;-69
2022/05/31 02:15:54;;;;;;;4.50;4.30;;;;;;;9.54;79.48;100841.88;6076639;23;20125;-68
2022/05/31 02:18:24;;;;;;;4.10;3.90;;;;;;;9.78;79.24;100871.34;6051693;23;20404;-69
2022/05/31 02:20:50;;;;;;;4.53;4.32;;;;;;;9.63;79.33;100845.84;6082319;23;20016;-68
2022/05/31 02:23:17;;;;;;;4.10;3.90;;;;;;;9.81;78.84;100873.00;6057966;23;20024;-68
2022/05/31 02:25:43;;;;;;;4.10;3.90;;;;;;;9.58;79.03;100839.06;6059067;23;20491;-69
2022/05/31 02:28:09;;;;;;;4.22;4.03;;;;;;;9.67;78.41;100843.00;6076113;23;20101;-68
2022/05/31 02:30:36;;;;;;;3.70;3.60;;;;;;;9.78;78.66;100866.97;6053981;23;20644;-68
2022/05/31 02:33:02;;;;;;;5.70;5.45;;;;;;;9.83;78.26;100879.84;6057530;23;20033;-68
2022/05/31 02:35:29;;;;;;;4.30;4.10;;;;;;;9.32;77.87;100781.75;6055041;23;20295;-68
2022/05/31 02:37:56;;;;;;;5.30;5.10;;;;;;;9.84;78.80;100870.22;6080144;23;20006;-69
2022/05/31 02:40:22;;;;;;;4.00;3.80;;;;;;;9.81;79.23;100868.59;6055976;23;20022;-69
2022/05/31 02:42:49;;;;;;;3.85;3.72;;;;;;;9.81;78.05;100865.13;6066069;23;20159;-68
2022/05/31 02:45:15;;;;;;;4.30;4.10;;;;;;;9.81;78.41;100859.88;6073342;23;20645;-69
2022/05/31 02:47:42;;;;;;;4.15;3.95;;;;;;;8.74;77.85;100668.31;6059982;23;20026;-69
2022/05/31 02:50:09;;;;;;;4.65;4.45;;;;;;;9.59;77.85;100811.91;6055050;23;20360;-69
2022/05/31 02:52:35;;;;;;;3.83;3.72;;;;;;;9.66;78.88;100829.97;6080825;23;20026;-69
2022/05/31 02:55:03;;;;;;;5.65;5.35;;;;;;;9.84;78.17;100864.97;6039593;23;20022;-70
2022/05/31 02:57:29;;;;;;;4.38;4.18;;;;;;;9.68;78.40;100828.13;6088347;23;20034;-69
2022/05/31 02:59:56;;;;;;;5.35;5.15;;;;;;;9.64;78.23;100826.56;6051644;23;20506;-69
2022/05/31 03:02:23;;;;;;;4.45;4.25;;;;;;;9.83;77.94;100858.88;6080168;23;20013;-69
2022/05/31 03:04:49;;;;;;;4.13;3.92;;;;;;;9.89;77.72;100860.38;6061335;23;20109;-68
2022/05/31 03:07:15;;;;;;;4.50;4.30;;;;;;;9.70;77.64;100824.53;6077783;23;20020;-70
2022/05/31 03:09:42;;;;;;;4.00;3.80;;;;;;;9.74;77.94;100828.72;6056034;23;20138;-69
2022/05/31 03:12:13;;;;;;;4.30;4.10;;;;;;;9.90;77.55;100846.31;6057854;23;20018;-70
2022/05/31 03:14:45;;;;;;;4.00;3.80;;;;;;;9.92;77.04;100847.97;6088000;23;20463;-69
2022/05/31 03:17:17;;;;;;;4.10;3.90;;;;;;;9.92;77.51;100852.34;6051135;23;20766;-69
2022/05/31 03:19:50;;;;;;;4.00;3.83;;;;;;;9.70;77.31;100826.28;6063903;23;20058;-69
2022/05/31 03:22:24;;;;;;;4.00;3.80;;;;;;;9.82;78.04;100843.22;6057421;23;20126;-69
2022/05/31 03:24:58;;;;;;;4.53;4.32;;;;;;;9.65;77.61;100820.44;6058382;23;20526;-67
2022/05/31 03:27:26;;;;;;;4.10;3.90;;;;;;;9.64;77.53;100811.72;6057910;23;20006;-70
2022/05/31 03:29:55;;;;;;;4.80;4.60;;;;;;;9.70;77.95;100824.53;6075580;23;20032;-68
2022/05/31 03:32:22;;;;;;;4.40;4.20;;;;;;;9.78;77.65;100838.13;6053840;23;20267;-68
2022/05/31 03:34:49;;;;;;;3.75;3.65;;;;;;;9.92;77.74;100853.22;6046843;23;21526;-69
2022/05/31 03:37:16;;;;;;;4.10;3.90;;;;;;;9.92;78.39;100853.22;6053426;23;20073;-69
2022/05/31 03:39:42;;;;;;;4.20;4.00;;;;;;;9.83;78.32;100837.91;6063437;23;20594;-69
2022/05/31 03:42:09;;;;;;;4.20;4.00;;;;;;;9.48;78.41;100768.78;6052812;23;20330;-70
2022/05/31 03:44:35;;;;;;;3.80;3.70;;;;;;;9.86;78.17;100829.91;6058364;23;20089;-66
2022/05/31 03:47:03;;;;;;;5.53;5.32;;;;;;;9.90;79.32;100841.97;6048113;23;20059;-67
2022/05/31 03:49:31;;;;;;;4.22;4.03;;;;;;;9.90;78.93;100841.09;6082535;23;20029;-67
2022/05/31 03:51:58;;;;;;;5.80;5.30;;;;;;;9.90;78.84;100841.09;6047481;23;20037;-67
2022/05/31 03:54:25;;;;;;;4.20;4.00;;;;;;;9.91;78.63;100842.81;6079345;23;20514;-67
2022/05/31 03:56:52;;;;;;;5.22;5.03;;;;;;;9.92;78.16;100845.34;6054391;23;20033;-66
2022/05/31 03:59:18;;;;;;;6.05;5.75;;;;;;;9.94;79.20;100847.88;6081638;23;20034;-67
2022/05/31 04:01:45;;;;;;;4.03;3.83;;;;;;;9.94;79.35;100848.75;6031840;23;20025;-67
2022/05/31 04:04:11;;;;;;;4.18;3.97;;;;;;;9.97;79.30;100850.38;6085645;23;20097;-67
2022/05/31 04:06:38;;;;;;;4.20;4.00;;;;;;;9.99;79.68;100859.84;6052509;23;20030;-67
2022/05/31 04:09:05;;;;;;;5.95;5.65;;;;;;;10.02;79.57;100852.78;6079527;23;20637;-66
2022/05/31 04:11:32;;;;;;;4.20;4.00;;;;;;;9.88;78.08;100820.22;6058734;23;20049;-70
2022/05/31 04:13:59;;;;;;;5.57;5.38;;;;;;;9.69;78.13;100793.16;6080329;23;20010;-71
2022/05/31 04:16:28;;;;;;;4.00;3.80;;;;;;;9.94;79.13;100829.53;6057664;23;20030;-69
2022/05/31 04:18:55;;;;;;;5.25;5.05;;;;;;;9.82;80.86;100815.22;6077439;23;20380;-71
2022/05/31 04:21:22;;;;;;;4.20;4.00;;;;;;;9.95;80.96;100845.19;6051199;23;20014;-66
2022/05/31 04:23:58;;;;;;;4.30;4.10;;;;;;;9.93;81.29;100844.41;6085925;23;20439;-66
2022/05/31 04:26:43;;;;;;;4.10;3.90;;;;;;;9.77;80.91;100812.00;6032152;23;20042;-70
2022/05/31 04:29:10;;;;;;;4.20;4.00;;;;;;;9.65;82.19;100791.59;6067689;23;20024;-67
2022/05/31 04:31:36;;;;;;;3.95;3.80;;;;;;;9.81;83.06;100834.50;6052728;23;20190;-66
2022/05/31 04:34:04;;;;;;;5.20;5.00;;;;;;;9.79;82.63;100820.63;6070239;23;20034;-67
2022/05/31 04:36:31;;;;;;;3.97;3.80;;;;;;;9.84;83.04;100829.09;6058458;23;20085;-67
2022/05/31 04:38:59;;;;;;;5.22;4.93;;;;;;;9.85;83.38;100825.59;6082199;23;20033;-67
2022/05/31 04:41:28;;;;;;;4.10;3.90;;;;;;;9.67;83.48;100801.09;6056121;23;20026;-70
2022/05/31 04:43:57;;;;;;;5.38;5.18;;;;;;;9.96;83.72;100838.16;6079340;23;20093;-72
2022/05/31 04:46:26;;;;;;;4.00;3.80;;;;;;;10.03;83.74;100839.59;6046216;23;20026;-66
2022/05/31 04:48:55;;;;;;;4.20;4.00;;;;;;;9.94;82.12;100816.41;6086278;23;20010;-66
2022/05/31 04:51:23;;;;;;;4.13;3.92;;;;;;;10.12;82.55;100836.53;6057700;23;20276;-64
2022/05/31 04:53:50;;;;;;;4.18;3.97;;;;;;;10.05;82.06;100827.25;6079786;23;20343;-67
2022/05/31 04:56:19;;;;;;;4.30;4.10;;;;;;;9.96;82.49;100806.72;6040419;23;20088;-67
2022/05/31 04:58:49;;;;;;;4.00;3.83;;;;;;;10.12;81.41;100809.44;6079539;23;20126;-65
2022/05/31 05:01:16;;;;;;;4.20;4.00;;;;;;;10.18;80.98;100796.91;6036392;23;20101;-70
2022/05/31 05:03:44;;;;;;;4.20;4.00;;;;;;;9.90;81.29;100742.34;6080210;23;20033;-71
2022/05/31 05:06:12;;;;;;;4.20;4.00;;;;;;;10.49;80.31;100820.81;6051698;23;20097;-67
2022/05/31 05:08:39;;;;;;;4.05;3.85;;;;;;;10.59;80.22;100827.28;6071585;23;20339;-69
2022/05/31 05:11:11;;;;;;;5.60;5.40;;;;;;;10.76;80.00;100831.66;6055839;23;20037;-71
2022/05/31 05:13:39;;;;;;;4.10;3.90;;;;;;;10.76;80.07;100811.53;6051830;23;20027;-70
2022/05/31 05:16:07;;;;;;;5.50;5.30;;;;;;;11.07;79.42;100830.13;6051359;23;20022;-67
2022/05/31 05:18:34;;;;;;;4.40;4.20;;;;;;;11.32;77.86;100822.63;6086100;23;20021;-67
2022/05/31 05:21:06;;;;;;;5.32;5.13;;;;;;;11.36;76.44;100833.81;6051289;23;20054;-67
2022/05/31 05:23:33;;;;;;;4.50;4.30;;;;;;;11.34;77.37;100819.91;6079809;23;20026;-67
2022/05/31 05:26:00;;;;;;;5.60;5.38;;;;;;;10.98;76.89;100769.28;6050927;23;20111;-66
2022/05/31 05:31:22;;;;;;;4.60;4.30;;;;;;;10.95;74.61;100771.19;6072037;23;20484;-68
2022/05/31 05:33:49;;;;;;;4.65;4.45;;;;;;;11.34;75.37;100835.69;6042739;23;20018;-66
2022/05/31 05:36:17;;;;;;;4.57;4.38;;;;;;;11.19;75.78;100821.59;6044532;23;20969;-68
2022/05/31 05:38:44;;;;;;;4.40;4.20;;;;;;;11.35;76.56;100854.00;6077656;23;20060;-71
2022/05/31 05:41:11;;;;;;;4.65;4.45;;;;;;;11.30;76.93;100860.41;6045014;23;20030;-70
2022/05/31 05:43:40;;;;;;;4.45;4.25;;;;;;;11.25;77.03;100863.28;6072352;23;20057;-67
2022/05/31 05:46:15;;;;;;;6.00;5.70;;;;;;;11.26;77.12;100878.13;6045608;23;20038;-71
2022/05/31 05:48:42;;;;;;;4.30;4.10;;;;;;;11.13;77.62;100870.03;6060710;23;20026;-67
2022/05/31 05:51:14;;;;;;;4.40;4.20;;;;;;;11.10;77.02;100872.81;6045585;23;20188;-70
2022/05/31 05:53:41;;;;;;;4.40;4.20;;;;;;;11.11;77.65;100868.41;6074484;23;20080;-66
2022/05/31 05:56:08;;;;;;;5.57;5.38;;;;;;;10.78;80.06;100837.69;6044166;23;20962;-68
2022/05/31 05:58:35;;;;;;;4.32;4.13;;;;;;;11.07;80.59;100864.25;6075691;23;20396;-70
2022/05/31 06:01:03;;;;;;;5.88;5.60;;;;;;;10.87;81.30;100816.22;6041811;23;20768;-67
2022/05/31 06:03:50;;;;;;;4.25;4.05;;;;;;;11.09;80.63;100855.38;6053253;23;20098;-72
2022/05/31 06:06:17;;;;;;;4.40;4.20;;;;;;;11.02;80.79;100848.72;6049994;23;20026;-71
2022/05/31 06:08:49;;;;;;;4.35;4.15;;;;;;;10.89;80.00;100839.78;6027592;23;20015;-65
2022/05/31 06:11:21;;;;;;;4.40;4.20;;;;;;;10.87;80.52;100841.66;6074891;23;20022;-69
2022/05/31 06:14:02;;;;;;;4.32;4.13;;;;;;;10.60;84.87;100830.75;6071529;23;20010;-68
2022/05/31 06:16:33;;;;;;;4.70;4.50;;;;;;;10.42;87.33;100829.88;6035852;23;20022;-66
2022/05/31 06:19:13;;;;;;;6.05;5.75;;;;;;;10.36;88.37;100833.66;6044437;23;20168;-66
2022/05/31 06:21:41;;;;;;;4.25;4.05;;;;;;;10.34;88.02;100815.41;6070534;23;20101;-66
2022/05/31 06:24:07;;;;;;;5.50;5.30;;;;;;;10.29;89.54;100819.97;6040925;23;20018;-66
2022/05/31 06:26:33;;;;;;;4.68;4.40;;;;;;;10.36;90.85;100839.78;6049675;23;20034;-69
2022/05/31 06:29:00;;;;;;;6.15;5.85;;;;;;;10.38;95.20;100860.66;6066457;23;20223;-69
2022/05/31 06:31:26;;;;;;;4.60;4.40;;;;;;;10.35;96.21;100869.53;6056400;23;20039;-65
2022/05/31 06:33:53;;;;;;;4.55;4.35;;;;;;;9.17;97.87;100678.56;6038616;23;20193;-71
2022/05/31 06:36:20;;;;;;;4.30;4.10;;;;;;;10.28;98.40;100852.34;6079720;23;20392;-72
2022/05/31 06:38:48;;;;;;;4.45;4.25;;;;;;;10.46;97.19;100879.50;6048020;23;20085;-68
2022/05/31 06:41:14;;;;;;;4.20;4.00;;;;;;;10.56;94.74;100867.66;6030336;23;20118;-67
2022/05/31 06:43:41;;;;;;;4.22;4.03;;;;;;;10.58;94.07;100841.31;6044038;23;20600;-69
2022/05/31 06:46:10;;;;;;;4.90;4.70;;;;;;;10.59;91.96;100840.41;6065680;23;20459;-68
2022/05/31 06:48:37;;;;;;;4.30;4.10;;;;;;;11.04;91.57;100873.13;6046590;23;20409;-72
2022/05/31 06:51:11;;;;;;;5.95;5.65;;;;;;;11.05;91.46;100861.69;6073836;23;20051;-69
2022/05/31 06:59:08;;;;;;;4.97;4.78;;;;;;;11.62;89.26;100827.16;6073388;23;20092;-69
2022/05/31 07:01:37;;;;;;;4.40;4.20;;;;;;;12.16;86.68;100866.31;6048422;23;20019;-66
2022/05/31 07:04:04;;;;;;;5.88;5.57;;;;;;;12.52;85.45;100841.44;6061086;23;20033;-67
2022/05/31 07:06:32;;;;;;;4.60;4.40;;;;;;;12.95;80.32;100860.00;6045732;23;20027;-65
2022/05/31 07:08:59;;;;;;;6.25;5.95;;;;;;;13.27;76.91;100851.94;6074437;23;20105;-66
2022/05/31 07:11:26;;;;;;;4.55;4.35;;;;;;;13.30;74.71;100850.00;6047522;23;20163;-69
2022/05/31 07:13:53;;;;;;;6.22;5.93;;;;;;;13.40;72.61;100844.16;6075965;23;20333;-64
2022/05/31 07:16:20;;;;;;;4.95;4.75;;;;;;;13.50;70.82;100848.75;6036884;23;20093;-66
2022/05/31 07:18:47;;;;;;;5.13;4.93;;;;;;;13.46;70.83;100805.06;6076319;23;20045;-66
2022/05/31 07:21:13;;;;;;;4.70;4.50;;;;;;;13.14;67.14;100780.69;6059130;23;20018;-70
2022/05/31 07:23:40;;;;;;;4.70;4.50;;;;;;;13.53;69.54;100827.50;6076165;23;20029;-66
2022/05/31 07:26:08;;;;;;;5.97;5.70;;;;;;;13.92;69.18;100851.44;6031361;23;20254;-67
2022/05/31 07:28:56;;;;;;;5.90;5.60;;;;;;;13.99;68.53;100834.25;6046901;23;20006;-68
2022/05/31 07:31:22;;;;;;;4.70;4.50;;;;;;;14.20;68.13;100853.16;6058107;23;20117;-66
2022/05/31 07:33:50;;;;;;;5.07;4.88;;;;;;;13.72;68.94;100821.06;6039363;23;20021;-65
2022/05/31 07:36:18;;;;;;;5.00;4.80;;;;;;;14.03;67.50;100845.47;6077116;23;20117;-66
2022/05/31 07:38:45;;;;;;;4.70;4.50;;;;;;;14.27;67.43;100843.91;6040788;23;20202;-69
2022/05/31 07:41:12;;;;;;;5.95;5.65;;;;;;;14.03;67.90;100838.41;6052653;23;20655;-67
2022/05/31 07:43:45;;;;;;;5.05;4.85;;;;;;;14.08;65.92;100859.22;6079472;23;20034;-68
2022/05/31 07:46:13;;;;;;;4.70;4.50;;;;;;;13.67;67.81;100833.66;6067473;23;20030;-72
2022/05/31 07:48:40;;;;;;;4.70;4.50;;;;;;;13.90;67.45;100834.88;6070484;23;20030;-70
2022/05/31 07:51:07;;;;;;;6.75;6.45;;;;;;;13.26;69.29;100801.00;6047435;23;20027;-69
2022/05/31 07:53:34;;;;;;;4.95;4.75;;;;;;;13.07;70.16;100839.97;6074317;23;20022;-69
2022/05/31 07:56:07;;;;;;;6.70;6.40;;;;;;;13.27;70.27;100807.13;6045736;23;20346;-70
2022/05/31 07:58:38;;;;;;;4.78;4.57;;;;;;;13.65;68.35;100841.69;6048826;23;20031;-66
2022/05/31 08:01:11;;;;;;;6.35;6.05;;;;;;;13.66;69.41;100842.53;6025414;23;20027;-67
2022/05/31 08:03:37;;;;;;;;;;;;;;;13.74;69.09;100842.91;6073716;23;20030;-67
2022/05/31 08:06:08;;;;;;;6.05;5.75;;;;;;;13.96;68.01;100837.94;6049079;23;19923;-66
2022/05/31 08:08:36;;;;;;;5.57;5.28;;;;;;;14.15;68.63;100837.63;6043288;23;20054;-67
2022/05/31 08:11:08;;;;;;;6.47;6.07;;;;;;;13.91;67.84;100799.59;6068008;23;20089;-69
2022/05/31 08:13:34;;;;;;;5.20;5.00;;;;;;;14.25;67.43;100840.50;6055665;23;20169;-68
2022/05/31 08:16:03;;;;;;;6.15;5.85;;;;;;;14.42;68.13;100831.47;6080277;23;20041;-69
2022/05/31 08:18:30;;;;;;;5.50;5.22;;;;;;;14.66;66.03;100829.03;6053196;23;20026;-68
2022/05/31 08:21:02;;;;;;;6.25;5.95;;;;;;;14.69;66.63;100841.16;6059892;23;20037;-66
2022/05/31 08:23:29;;;;;;;4.78;4.57;;;;;;;14.46;65.50;100832.13;6055659;23;20022;-70
2022/05/31 08:25:55;;;;;;;6.25;5.95;;;;;;;14.34;67.93;100834.63;6038346;23;20593;-67
2022/05/31 08:28:22;;;;;;;4.82;4.63;;;;;;;14.14;67.38;100837.72;6056915;23;20391;-68
2022/05/31 08:30:55;;;;;;;4.88;4.68;;;;;;;14.19;69.28;100851.44;6048131;23;20380;-68
2022/05/31 08:33:21;;;;;;;5.10;4.90;;;;;;;14.09;70.01;100838.03;6055525;23;20088;-67
2022/05/31 08:35:48;;;;;;;4.82;4.63;;;;;;;13.80;70.76;100842.50;6052774;23;20498;-67
2022/05/31 08:38:31;;;;;;;4.97;4.78;;;;;;;13.99;70.46;100830.78;6071884;23;20037;-67
2022/05/31 08:41:08;;;;;;;6.32;6.03;;;;;;;13.92;71.93;100825.06;6050392;23;20026;-68
2022/05/31 08:43:47;;;;;;;5.45;5.20;;;;;;;14.13;72.81;100844.78;6077782;23;20075;-67
2022/05/31 08:46:29;;;;;;;5.05;4.85;;;;;;;14.30;71.46;100827.84;6040921;23;20022;-66
2022/05/31 08:49:03;;;;;;;6.23;5.93;;;;;;;13.85;70.54;100832.53;6073502;23;20026;-66
2022/05/31 08:51:53;;;;;;;4.93;4.72;;;;;;;13.76;71.57;100826.03;6049975;23;20049;-68
2022/05/31 08:57:36;;;;;;;5.13;4.93;;;;;;;13.88;71.03;100834.97;6044154;23;20022;-68
2022/05/31 09:00:15;;;;;;;5.97;5.68;;;;;;;14.07;72.49;100842.56;6073143;23;20038;-69
2022/05/31 09:02:49;;;;;;;4.72;4.53;;;;;;;14.17;69.65;100842.78;6046853;23;20113;-68
2022/05/31 09:05:25;;;;;;;4.75;4.55;;;;;;;14.31;69.97;100840.13;6080419;23;20112;-68
2022/05/31 09:07:59;;;;;;;4.88;4.68;;;;;;;14.40;70.81;100841.28;6053936;23;20014;-69
2022/05/31 09:10:45;;;;;;;5.00;4.80;;;;;;;14.61;71.42;100838.19;6073697;23;20271;-69
2022/05/31 09:13:28;;;;;;;5.30;5.07;;;;;;;14.54;70.68;100814.81;6052892;23;20027;-69
2022/05/31 09:16:00;;;;;;;6.05;5.78;;;;;;;14.29;69.45;100776.00;6043147;23;20143;-67
2022/05/31 09:18:50;;;;;;;5.00;4.70;;;;;;;14.41;70.33;100831.56;6076304;23;20038;-69
2022/05/31 09:21:26;;;;;;;4.88;4.68;;;;;;;14.48;70.45;100831.06;6035232;23;20011;-71
2022/05/31 09:23:55;;;;;;;5.43;5.13;;;;;;;14.27;69.62;100772.63;6069037;23;20018;-72
2022/05/31 09:26:21;;;;;;;4.97;4.78;;;;;;;14.83;67.81;100824.38;6048124;23;20038;-67
2022/05/31 09:28:59;;;;;;;5.35;5.05;;;;;;;14.54;68.16;100808.69;6045332;23;20356;-66
2022/05/31 09:31:46;;;;;;;4.72;4.53;;;;;;;14.88;66.49;100814.38;6061537;23;20022;-68
2022/05/31 09:34:55;;;;;;;4.85;4.65;;;;;;;15.07;66.49;100764.53;6044908;23;20060;-70
2022/05/31 09:37:57;;;;;;;4.90;4.70;;;;;;;15.85;65.13;100826.94;5972484;23;20349;-69
2022/05/31 09:40:42;;;;;;;5.00;4.80;;;;;;;16.15;63.05;100830.94;6043116;23;20160;-71
2022/05/31 09:43:25;;;;;;;5.55;5.25;;;;;;;16.53;62.65;100819.31;6043773;23;20048;-70
2022/05/31 09:45:54;;;;;;;;;;;;;;;16.90;61.59;100835.97;6038657;23;20053;-66
2022/05/31 09:48:21;;;;;;;17.15;16.25;;;;;;;16.24;58.67;100676.69;5982272;23;20323;-66
2022/05/31 09:50:48;;;;;;;4.90;4.70;;;;;;;17.55;55.79;100821.13;5970668;23;20014;-71
2022/05/31 09:59:09;;;;;;;4.90;4.70;;;;;;;17.06;52.12;100825.00;6067680;23;20101;-67
2022/05/31 10:01:44;;;;;;;5.10;4.90;;;;;;;16.63;55.08;100816.81;6037153;23;20032;-70
2022/05/31 10:04:20;;;;;;;4.95;4.75;;;;;;;16.19;56.40;100819.19;6069385;23;20095;-71
2022/05/31 10:06:56;;;;;;;6.43;6.07;;;;;;;16.47;56.32;100815.31;6043571;23;20006;-72
2022/05/31 10:09:28;;;;;;;4.82;4.63;;;;;;;16.88;56.86;100814.03;6068621;23;20113;-72
2022/05/31 10:12:15;;;;;;;6.43;6.13;;;;;;;17.08;53.71;100803.69;6066411;23;20014;-70
2022/05/31 10:14:45;;;;;;;5.50;5.20;;;;;;;16.12;54.24;100796.78;6051202;23;20034;-72
2022/05/31 10:17:32;;;;;;;4.90;4.70;;;;;;;16.15;56.85;100796.53;6044060;23;20122;-69
2022/05/31 10:20:24;;;;;;;6.75;6.43;;;;;;;16.24;54.81;100793.22;6051741;23;20097;-69
2022/05/31 10:22:57;;;;;;;5.25;5.05;;;;;;;16.44;54.84;100791.72;6054244;23;20463;-69
2022/05/31 10:25:26;;;;;;;5.10;4.90;;;;;;;16.72;54.87;100798.41;6069972;23;20006;-69
2022/05/31 10:28:12;;;;;;;5.78;5.50;;;;;;;17.02;53.46;100794.41;6035505;23;20031;-69
2022/05/31 10:30:39;;;;;;;5.45;5.15;;;;;;;16.96;52.92;100792.22;6045510;23;20303;-68
2022/05/31 10:33:21;;;;;;;6.25;5.95;;;;;;;17.27;51.88;100773.91;6037195;23;20256;-68
2022/05/31 10:36:23;;;;;;;5.40;5.13;;;;;;;17.48;51.37;100792.56;6075976;23;20014;-69
2022/05/31 10:38:51;;;;;;;5.70;5.30;;;;;;;17.49;50.49;100795.09;6064337;23;20021;-69
2022/05/31 10:41:22;;;;;;;5.32;5.13;;;;;;;17.13;52.29;100788.25;6048065;23;20033;-69
2022/05/31 10:44:31;;;;;;;6.43;6.13;;;;;;;16.55;53.11;100733.44;6068512;23;20466;-69
2022/05/31 10:47:05;;;;;;;6.53;6.23;;;;;;;17.22;52.05;100774.28;6076752;23;20101;-68
2022/05/31 10:49:32;;;;;;;5.10;4.90;;;;;;;17.46;52.17;100754.69;6083641;23;20304;-72
2022/05/31 10:52:12;;;;;;;6.18;5.88;;;;;;;17.62;50.98;100781.72;6054242;23;20026;-69
2022/05/31 10:54:56;;;;;;;5.13;4.93;;;;;;;17.93;50.00;100782.72;6079989;23;20528;-69
2022/05/31 10:58:00;;;;;;;5.32;5.07;;;;;;;18.12;49.11;100775.91;6041143;23;20181;-69
2022/05/31 11:00:38;;;;;;;4.82;4.63;;;;;;;18.51;49.30;100771.72;6086771;23;20034;-69
2022/05/31 11:03:15;;;;;;;6.45;6.15;;;;;;;18.69;50.63;100769.31;6078871;23;20026;-70
2022/05/31 11:06:13;;;;;;;5.60;5.30;;;;;;;18.76;50.13;100766.97;6043520;23;20109;-68
2022/05/31 11:12:15;;;;;;;6.68;6.38;;;;;;;18.56;47.13;100759.84;5967006;23;20376;-69
2022/05/31 11:14:54;;;;;;;5.70;5.32;;;;;;;18.26;48.30;100775.63;6050672;23;20054;-67
2022/05/31 11:18:05;;;;;;;5.63;5.32;;;;;;;18.51;47.11;100770.88;6086895;23;20038;-67
2022/05/31 11:20:56;;;;;;;5.65;5.30;;;;;;;18.36;45.94;100773.00;6041526;23;20037;-67
2022/05/31 11:23:57;;;;;;;5.05;4.82;;;;;;;17.80;49.72;100771.41;6078883;23;20021;-67
2022/05/31 11:26:45;;;;;;;5.47;5.18;;;;;;;18.16;49.65;100769.34;6044382;23;20487;-66
2022/05/31 11:29:53;;;;;;;5.13;4.93;;;;;;;18.96;46.63;100764.44;6057619;23;20052;-66
2022/05/31 11:32:25;;;;;;;5.40;5.20;;;;;;;19.20;44.84;100766.78;6023643;23;20011;-69
2022/05/31 11:35:37;;;;;;;5.80;5.40;;;;;;;18.25;44.77;100574.69;6062285;23;20112;-66
2022/05/31 11:38:16;;;;;;;6.35;6.05;;;;;;;19.43;42.84;100773.59;6011011;23;20062;-67
2022/05/31 11:41:05;;;;;;;5.30;5.00;;;;;;;19.26;43.28;100771.56;6080107;23;20497;-67
2022/05/31 11:44:07;;;;;;;5.10;4.90;;;;;;;18.65;43.86;100756.44;6043886;23;20110;-69
2022/05/31 11:46:46;;;;;;;5.05;4.85;;;;;;;18.60;42.62;100769.25;6082603;23;20427;-68
2022/05/31 11:49:27;;;;;;;5.53;5.32;;;;;;;18.90;40.26;100760.50;6040029;23;20077;-67
2022/05/31 11:52:03;;;;;;;5.57;5.35;;;;;;;19.05;41.96;100764.50;6047250;23;20022;-68
2022/05/31 11:57:48;;;;;;;5.53;5.22;;;;;;;18.94;41.27;100767.22;6047393;23;20874;-68
2022/05/31 12:00:16;;;;;;;5.30;5.10;;;;;;;19.16;41.50;100734.28;6031926;23;20060;-66
2022/05/31 12:02:57;;;;;;;5.10;4.80;;;;;;;19.90;42.06;100767.69;6082623;23;20028;-66
2022/05/31 12:05:30;;;;;;;5.63;5.32;;;;;;;20.13;42.46;100744.28;6066233;23;20375;-67
2022/05/31 12:08:18;;;;;;;6.55;6.25;;;;;;;20.24;39.05;100757.44;6026105;23;20427;-66
2022/05/31 12:10:51;;;;;;;5.28;5.00;;;;;;;20.43;40.58;100755.75;6060448;23;20053;-66
2022/05/31 12:13:19;;;;;;;5.70;5.40;;;;;;;20.78;40.12;100752.47;6052429;23;20372;-67
2022/05/31 12:15:50;;;;;;;6.25;5.70;;;;;;;19.86;38.37;100766.28;6069035;23;20038;-67